sensor_id;sensor_type;location;lat;lon;timestamp;P1;durP1;ratioP1;P2;durP2;ratioP2
17854;SDS011;9053;53.358;6.382;2023-02-18T00:00:31;9.40;;;2.20;;
17854;SDS011;9053;53.358;6.382;2023-02-18T00:03:01;9.97;;;2.70;;
17854;SDS011;9053;53.358;6.382;2023-02-18T00:05:30;10.43;;;2.80;;
17854;SDS011;9053;53.358;6.382;2023-02-18T00:08:00;11.53;;;3.10;;
17854;SDS011;9053;53.358;6.382;2023-02-18T00:10:30;11.27;;;2.90;;
17854;SDS011;9053;53.358;6.382;2023-02-18T00:13:00;10.80;;;2.67;;
17854;SDS011;9053;53.358;6.382;2023-02-18T00:15:32;13.80;;;2.83;;
17854;SDS011;9053;53.358;6.382;2023-02-18T00:18:03;11.47;;;2.87;;
17854;SDS011;9053;53.358;6.382;2023-02-18T00:20:33;15.27;;;3.20;;
17854;SDS011;9053;53.358;6.382;2023-02-18T00:23:04;10.87;;;2.87;;
17854;SDS011;9053;53.358;6.382;2023-02-18T00:25:33;15.60;;;2.97;;
17854;SDS011;9053;53.358;6.382;2023-02-18T00:28:03;13.10;;;2.87;;
17854;SDS011;9053;53.358;6.382;2023-02-18T00:30:36;10.20;;;2.57;;
17854;SDS011;9053;53.358;6.382;2023-02-18T00:33:08;10.27;;;2.80;;
17854;SDS011;9053;53.358;6.382;2023-02-18T00:35:38;15.37;;;3.17;;
17854;SDS011;9053;53.358;6.382;2023-02-18T00:38:08;10.03;;;2.60;;
17854;SDS011;9053;53.358;6.382;2023-02-18T00:40:38;13.17;;;3.17;;
17854;SDS011;9053;53.358;6.382;2023-02-18T00:43:08;12.13;;;3.03;;
17854;SDS011;9053;53.358;6.382;2023-02-18T00:45:41;14.97;;;3.27;;
17854;SDS011;9053;53.358;6.382;2023-02-18T00:48:11;8.97;;;2.67;;
17854;SDS011;9053;53.358;6.382;2023-02-18T00:50:41;12.10;;;3.23;;
17854;SDS011;9053;53.358;6.382;2023-02-18T00:53:10;13.60;;;2.90;;
17854;SDS011;9053;53.358;6.382;2023-02-18T00:55:40;14.10;;;2.87;;
17854;SDS011;9053;53.358;6.382;2023-02-18T00:58:13;12.83;;;2.67;;
17854;SDS011;9053;53.358;6.382;2023-02-18T01:00:46;11.67;;;2.80;;
17854;SDS011;9053;53.358;6.382;2023-02-18T01:03:16;10.53;;;3.00;;
17854;SDS011;9053;53.358;6.382;2023-02-18T01:05:48;8.57;;;2.40;;
17854;SDS011;9053;53.358;6.382;2023-02-18T01:08:18;11.70;;;3.03;;
17854;SDS011;9053;53.358;6.382;2023-02-18T01:10:52;6.87;;;2.30;;
17854;SDS011;9053;53.358;6.382;2023-02-18T01:13:23;6.50;;;2.30;;
17854;SDS011;9053;53.358;6.382;2023-02-18T01:15:56;10.30;;;2.80;;
17854;SDS011;9053;53.358;6.382;2023-02-18T01:18:26;10.20;;;2.53;;
17854;SDS011;9053;53.358;6.382;2023-02-18T01:20:56;7.27;;;2.60;;
17854;SDS011;9053;53.358;6.382;2023-02-18T01:23:26;10.57;;;3.13;;
17854;SDS011;9053;53.358;6.382;2023-02-18T01:25:57;14.57;;;3.63;;
17854;SDS011;9053;53.358;6.382;2023-02-18T01:28:26;8.43;;;2.70;;
17854;SDS011;9053;53.358;6.382;2023-02-18T01:31:02;15.07;;;3.20;;
17854;SDS011;9053;53.358;6.382;2023-02-18T01:33:33;7.87;;;2.43;;
17854;SDS011;9053;53.358;6.382;2023-02-18T01:36:04;7.03;;;2.80;;
17854;SDS011;9053;53.358;6.382;2023-02-18T01:38:36;10.23;;;2.77;;
17854;SDS011;9053;53.358;6.382;2023-02-18T01:41:06;10.77;;;2.50;;
17854;SDS011;9053;53.358;6.382;2023-02-18T01:43:37;9.33;;;2.77;;
17854;SDS011;9053;53.358;6.382;2023-02-18T01:46:14;11.27;;;2.80;;
17854;SDS011;9053;53.358;6.382;2023-02-18T01:48:47;9.43;;;2.97;;
17854;SDS011;9053;53.358;6.382;2023-02-18T01:51:21;9.63;;;2.93;;
17854;SDS011;9053;53.358;6.382;2023-02-18T01:53:55;10.17;;;3.40;;
17854;SDS011;9053;53.358;6.382;2023-02-18T01:56:30;11.40;;;2.90;;
17854;SDS011;9053;53.358;6.382;2023-02-18T01:59:05;10.37;;;3.13;;
17854;SDS011;9053;53.358;6.382;2023-02-18T02:01:39;10.13;;;2.70;;
17854;SDS011;9053;53.358;6.382;2023-02-18T02:04:11;10.57;;;2.67;;
17854;SDS011;9053;53.358;6.382;2023-02-18T02:06:42;10.90;;;2.93;;
17854;SDS011;9053;53.358;6.382;2023-02-18T02:09:12;9.90;;;3.17;;
17854;SDS011;9053;53.358;6.382;2023-02-18T02:17:42;8.87;;;2.40;;
17854;SDS011;9053;53.358;6.382;2023-02-18T02:23:32;7.40;;;2.37;;
17854;SDS011;9053;53.358;6.382;2023-02-18T02:33:15;11.17;;;2.90;;
17854;SDS011;9053;53.358;6.382;2023-02-18T02:36:02;6.93;;;2.43;;
17854;SDS011;9053;53.358;6.382;2023-02-18T02:38:38;7.37;;;2.70;;
17854;SDS011;9053;53.358;6.382;2023-02-18T02:41:18;7.60;;;2.60;;
17854;SDS011;9053;53.358;6.382;2023-02-18T02:43:59;10.73;;;2.93;;
17854;SDS011;9053;53.358;6.382;2023-02-18T02:46:37;6.00;;;2.77;;
17854;SDS011;9053;53.358;6.382;2023-02-18T02:49:12;9.97;;;2.60;;
17854;SDS011;9053;53.358;6.382;2023-02-18T02:51:55;6.13;;;2.93;;
17854;SDS011;9053;53.358;6.382;2023-02-18T02:54:29;8.27;;;2.50;;
17854;SDS011;9053;53.358;6.382;2023-02-18T02:57:03;6.27;;;2.23;;
17854;SDS011;9053;53.358;6.382;2023-02-18T02:59:36;9.13;;;2.43;;
17854;SDS011;9053;53.358;6.382;2023-02-18T03:02:16;7.80;;;2.70;;
17854;SDS011;9053;53.358;6.382;2023-02-18T03:05:04;9.00;;;2.73;;
17854;SDS011;9053;53.358;6.382;2023-02-18T03:07:53;8.93;;;2.80;;
17854;SDS011;9053;53.358;6.382;2023-02-18T03:10:36;6.17;;;2.67;;
17854;SDS011;9053;53.358;6.382;2023-02-18T03:13:15;12.30;;;3.30;;
17854;SDS011;9053;53.358;6.382;2023-02-18T03:15:54;7.90;;;3.00;;
17854;SDS011;9053;53.358;6.382;2023-02-18T03:18:29;7.87;;;2.60;;
17854;SDS011;9053;53.358;6.382;2023-02-18T03:21:06;7.23;;;2.73;;
17854;SDS011;9053;53.358;6.382;2023-02-18T03:23:43;8.27;;;2.77;;
17854;SDS011;9053;53.358;6.382;2023-02-18T03:26:17;8.00;;;2.60;;
17854;SDS011;9053;53.358;6.382;2023-02-18T03:28:49;9.50;;;2.60;;
17854;SDS011;9053;53.358;6.382;2023-02-18T03:31:24;7.97;;;3.27;;
17854;SDS011;9053;53.358;6.382;2023-02-18T03:33:58;10.93;;;3.50;;
17854;SDS011;9053;53.358;6.382;2023-02-18T03:36:30;6.67;;;2.43;;
17854;SDS011;9053;53.358;6.382;2023-02-18T03:39:06;9.43;;;2.87;;
17854;SDS011;9053;53.358;6.382;2023-02-18T03:41:39;7.60;;;3.10;;
17854;SDS011;9053;53.358;6.382;2023-02-18T03:44:10;7.80;;;3.10;;
17854;SDS011;9053;53.358;6.382;2023-02-18T03:46:41;10.83;;;3.43;;
17854;SDS011;9053;53.358;6.382;2023-02-18T03:49:12;9.13;;;3.13;;
17854;SDS011;9053;53.358;6.382;2023-02-18T03:51:43;6.10;;;2.93;;
17854;SDS011;9053;53.358;6.382;2023-02-18T03:54:15;9.83;;;3.33;;
17854;SDS011;9053;53.358;6.382;2023-02-18T03:56:45;11.00;;;3.23;;
17854;SDS011;9053;53.358;6.382;2023-02-18T03:59:15;12.23;;;4.00;;
17854;SDS011;9053;53.358;6.382;2023-02-18T04:01:45;9.07;;;3.43;;
17854;SDS011;9053;53.358;6.382;2023-02-18T04:04:15;9.50;;;3.40;;
17854;SDS011;9053;53.358;6.382;2023-02-18T04:06:45;13.93;;;3.60;;
17854;SDS011;9053;53.358;6.382;2023-02-18T04:09:17;12.23;;;3.60;;
17854;SDS011;9053;53.358;6.382;2023-02-18T04:11:47;9.43;;;3.50;;
17854;SDS011;9053;53.358;6.382;2023-02-18T04:14:17;8.87;;;3.50;;
17854;SDS011;9053;53.358;6.382;2023-02-18T04:16:46;9.93;;;3.97;;
17854;SDS011;9053;53.358;6.382;2023-02-18T04:19:16;10.77;;;3.77;;
17854;SDS011;9053;53.358;6.382;2023-02-18T04:21:46;12.83;;;4.07;;
17854;SDS011;9053;53.358;6.382;2023-02-18T04:24:18;8.33;;;3.20;;
17854;SDS011;9053;53.358;6.382;2023-02-18T04:26:48;8.07;;;3.30;;
17854;SDS011;9053;53.358;6.382;2023-02-18T04:29:18;7.83;;;3.70;;
17854;SDS011;9053;53.358;6.382;2023-02-18T04:31:48;6.80;;;3.57;;
17854;SDS011;9053;53.358;6.382;2023-02-18T04:34:18;8.50;;;3.30;;
17854;SDS011;9053;53.358;6.382;2023-02-18T04:36:47;8.57;;;3.67;;
17854;SDS011;9053;53.358;6.382;2023-02-18T04:39:20;8.67;;;3.40;;
17854;SDS011;9053;53.358;6.382;2023-02-18T04:41:50;11.63;;;3.83;;
17854;SDS011;9053;53.358;6.382;2023-02-18T04:44:19;8.77;;;3.80;;
17854;SDS011;9053;53.358;6.382;2023-02-18T04:46:49;7.47;;;3.03;;
17854;SDS011;9053;53.358;6.382;2023-02-18T04:49:19;8.13;;;3.10;;
17854;SDS011;9053;53.358;6.382;2023-02-18T04:51:49;7.27;;;3.40;;
17854;SDS011;9053;53.358;6.382;2023-02-18T04:54:21;6.33;;;3.40;;
17854;SDS011;9053;53.358;6.382;2023-02-18T04:56:51;8.37;;;3.20;;
17854;SDS011;9053;53.358;6.382;2023-02-18T04:59:21;7.63;;;3.23;;
17854;SDS011;9053;53.358;6.382;2023-02-18T05:01:50;6.73;;;2.97;;
17854;SDS011;9053;53.358;6.382;2023-02-18T05:04:20;9.00;;;2.87;;
17854;SDS011;9053;53.358;6.382;2023-02-18T05:06:50;5.93;;;2.97;;
17854;SDS011;9053;53.358;6.382;2023-02-18T05:09:23;4.93;;;2.60;;
17854;SDS011;9053;53.358;6.382;2023-02-18T05:11:52;8.77;;;4.00;;
17854;SDS011;9053;53.358;6.382;2023-02-18T05:14:22;7.73;;;3.07;;
17854;SDS011;9053;53.358;6.382;2023-02-18T05:16:52;6.40;;;2.97;;
17854;SDS011;9053;53.358;6.382;2023-02-18T05:19:22;8.60;;;3.37;;
17854;SDS011;9053;53.358;6.382;2023-02-18T05:21:51;6.10;;;2.90;;
17854;SDS011;9053;53.358;6.382;2023-02-18T05:24:24;7.17;;;3.60;;
17854;SDS011;9053;53.358;6.382;2023-02-18T05:26:54;5.53;;;3.60;;
17854;SDS011;9053;53.358;6.382;2023-02-18T05:29:23;8.23;;;4.50;;
17854;SDS011;9053;53.358;6.382;2023-02-18T05:31:53;6.87;;;4.70;;
17854;SDS011;9053;53.358;6.382;2023-02-18T05:34:23;8.23;;;4.90;;
17854;SDS011;9053;53.358;6.382;2023-02-18T05:36:53;12.33;;;6.03;;
17854;SDS011;9053;53.358;6.382;2023-02-18T05:39:25;11.40;;;6.03;;
17854;SDS011;9053;53.358;6.382;2023-02-18T05:41:55;16.10;;;8.80;;
17854;SDS011;9053;53.358;6.382;2023-02-18T05:44:25;10.60;;;7.20;;
17854;SDS011;9053;53.358;6.382;2023-02-18T05:47:02;14.47;;;8.50;;
17854;SDS011;9053;53.358;6.382;2023-02-18T05:49:36;16.70;;;10.80;;
17854;SDS011;9053;53.358;6.382;2023-02-18T05:52:08;16.73;;;11.30;;
17854;SDS011;9053;53.358;6.382;2023-02-18T05:54:41;17.93;;;11.93;;
17854;SDS011;9053;53.358;6.382;2023-02-18T05:57:12;21.77;;;13.27;;
17854;SDS011;9053;53.358;6.382;2023-02-18T05:59:42;18.77;;;13.23;;
17854;SDS011;9053;53.358;6.382;2023-02-18T06:02:11;21.13;;;14.27;;
17854;SDS011;9053;53.358;6.382;2023-02-18T06:04:41;21.37;;;14.17;;
17854;SDS011;9053;53.358;6.382;2023-02-18T06:07:11;18.90;;;13.20;;
17854;SDS011;9053;53.358;6.382;2023-02-18T06:09:43;20.20;;;13.93;;
17854;SDS011;9053;53.358;6.382;2023-02-18T06:12:13;21.40;;;14.17;;
17854;SDS011;9053;53.358;6.382;2023-02-18T06:14:43;22.13;;;14.50;;
17854;SDS011;9053;53.358;6.382;2023-02-18T06:17:13;22.53;;;14.10;;
17854;SDS011;9053;53.358;6.382;2023-02-18T06:19:44;21.07;;;12.93;;
17854;SDS011;9053;53.358;6.382;2023-02-18T06:22:14;21.43;;;13.27;;
17854;SDS011;9053;53.358;6.382;2023-02-18T06:24:47;17.00;;;12.07;;
17854;SDS011;9053;53.358;6.382;2023-02-18T06:27:16;18.40;;;12.13;;
17854;SDS011;9053;53.358;6.382;2023-02-18T06:29:46;15.87;;;11.77;;
17854;SDS011;9053;53.358;6.382;2023-02-18T06:32:16;15.83;;;11.10;;
17854;SDS011;9053;53.358;6.382;2023-02-18T06:34:46;16.93;;;11.03;;
17854;SDS011;9053;53.358;6.382;2023-02-18T06:37:16;17.50;;;12.00;;
17854;SDS011;9053;53.358;6.382;2023-02-18T06:39:48;17.10;;;11.37;;
17854;SDS011;9053;53.358;6.382;2023-02-18T06:42:18;14.93;;;10.03;;
17854;SDS011;9053;53.358;6.382;2023-02-18T06:44:48;15.97;;;10.27;;
17854;SDS011;9053;53.358;6.382;2023-02-18T06:47:17;16.40;;;11.23;;
17854;SDS011;9053;53.358;6.382;2023-02-18T06:49:47;17.80;;;12.13;;
17854;SDS011;9053;53.358;6.382;2023-02-18T06:52:17;19.97;;;11.73;;
17854;SDS011;9053;53.358;6.382;2023-02-18T06:54:50;20.30;;;12.43;;
17854;SDS011;9053;53.358;6.382;2023-02-18T06:57:19;21.17;;;13.20;;
17854;SDS011;9053;53.358;6.382;2023-02-18T06:59:49;19.20;;;12.17;;
17854;SDS011;9053;53.358;6.382;2023-02-18T07:02:19;26.47;;;14.30;;
17854;SDS011;9053;53.358;6.382;2023-02-18T07:04:49;27.57;;;15.23;;
17854;SDS011;9053;53.358;6.382;2023-02-18T07:07:18;27.40;;;14.93;;
17854;SDS011;9053;53.358;6.382;2023-02-18T07:09:51;28.83;;;14.53;;
17854;SDS011;9053;53.358;6.382;2023-02-18T07:12:21;28.10;;;14.77;;
17854;SDS011;9053;53.358;6.382;2023-02-18T07:14:50;29.63;;;14.53;;
17854;SDS011;9053;53.358;6.382;2023-02-18T07:17:20;30.10;;;14.90;;
17854;SDS011;9053;53.358;6.382;2023-02-18T07:19:50;30.73;;;14.60;;
17854;SDS011;9053;53.358;6.382;2023-02-18T07:22:21;29.60;;;13.87;;
17854;SDS011;9053;53.358;6.382;2023-02-18T07:24:53;21.37;;;13.03;;
17854;SDS011;9053;53.358;6.382;2023-02-18T07:27:23;21.73;;;12.83;;
17854;SDS011;9053;53.358;6.382;2023-02-18T07:29:53;24.17;;;13.30;;
17854;SDS011;9053;53.358;6.382;2023-02-18T07:32:23;23.37;;;13.13;;
17854;SDS011;9053;53.358;6.382;2023-02-18T07:34:53;22.07;;;12.07;;
17854;SDS011;9053;53.358;6.382;2023-02-18T07:37:23;21.53;;;11.50;;
17854;SDS011;9053;53.358;6.382;2023-02-18T07:39:55;19.80;;;11.20;;
17854;SDS011;9053;53.358;6.382;2023-02-18T07:42:25;20.13;;;10.73;;
17854;SDS011;9053;53.358;6.382;2023-02-18T07:44:55;18.87;;;10.97;;
17854;SDS011;9053;53.358;6.382;2023-02-18T07:47:25;22.37;;;10.93;;
17854;SDS011;9053;53.358;6.382;2023-02-18T07:50:00;21.20;;;10.47;;
17854;SDS011;9053;53.358;6.382;2023-02-18T07:52:30;19.43;;;9.43;;
17854;SDS011;9053;53.358;6.382;2023-02-18T07:55:03;18.53;;;8.60;;
17854;SDS011;9053;53.358;6.382;2023-02-18T07:57:33;17.60;;;8.97;;
17854;SDS011;9053;53.358;6.382;2023-02-18T08:00:22;15.07;;;8.83;;
17854;SDS011;9053;53.358;6.382;2023-02-18T08:02:52;17.83;;;8.67;;
17854;SDS011;9053;53.358;6.382;2023-02-18T08:05:22;16.00;;;8.23;;
17854;SDS011;9053;53.358;6.382;2023-02-18T08:07:52;17.60;;;8.40;;
17854;SDS011;9053;53.358;6.382;2023-02-18T08:10:28;15.17;;;8.03;;
17854;SDS011;9053;53.358;6.382;2023-02-18T08:12:58;13.83;;;8.37;;
17854;SDS011;9053;53.358;6.382;2023-02-18T08:15:28;13.97;;;7.33;;
17854;SDS011;9053;53.358;6.382;2023-02-18T08:17:57;15.70;;;7.77;;
17854;SDS011;9053;53.358;6.382;2023-02-18T08:20:27;15.17;;;8.67;;
17854;SDS011;9053;53.358;6.382;2023-02-18T08:22:57;17.43;;;7.33;;
17854;SDS011;9053;53.358;6.382;2023-02-18T08:25:29;11.80;;;7.10;;
17854;SDS011;9053;53.358;6.382;2023-02-18T08:27:59;15.33;;;6.83;;
17854;SDS011;9053;53.358;6.382;2023-02-18T08:30:29;13.70;;;5.77;;
17854;SDS011;9053;53.358;6.382;2023-02-18T08:33:00;15.00;;;6.67;;
17854;SDS011;9053;53.358;6.382;2023-02-18T08:35:29;12.27;;;5.33;;
17854;SDS011;9053;53.358;6.382;2023-02-18T08:37:59;12.57;;;5.33;;
17854;SDS011;9053;53.358;6.382;2023-02-18T08:40:41;13.43;;;5.00;;
17854;SDS011;9053;53.358;6.382;2023-02-18T08:43:12;14.20;;;5.10;;
17854;SDS011;9053;53.358;6.382;2023-02-18T08:45:42;13.13;;;4.67;;
17854;SDS011;9053;53.358;6.382;2023-02-18T08:48:13;12.80;;;4.77;;
17854;SDS011;9053;53.358;6.382;2023-02-18T08:50:46;12.87;;;4.50;;
17854;SDS011;9053;53.358;6.382;2023-02-18T08:53:16;12.23;;;4.00;;
17854;SDS011;9053;53.358;6.382;2023-02-18T08:55:49;13.50;;;4.03;;
17854;SDS011;9053;53.358;6.382;2023-02-18T08:58:19;13.57;;;3.97;;
17854;SDS011;9053;53.358;6.382;2023-02-18T09:00:49;9.33;;;3.00;;
17854;SDS011;9053;53.358;6.382;2023-02-18T09:03:18;12.03;;;3.47;;
17854;SDS011;9053;53.358;6.382;2023-02-18T09:05:48;9.40;;;2.87;;
17854;SDS011;9053;53.358;6.382;2023-02-18T09:08:18;11.03;;;3.40;;
17854;SDS011;9053;53.358;6.382;2023-02-18T09:10:51;10.60;;;3.10;;
17854;SDS011;9053;53.358;6.382;2023-02-18T09:13:24;10.03;;;2.70;;
17854;SDS011;9053;53.358;6.382;2023-02-18T09:15:55;11.50;;;3.27;;
17854;SDS011;9053;53.358;6.382;2023-02-18T09:18:26;12.70;;;2.77;;
17854;SDS011;9053;53.358;6.382;2023-02-18T09:20:56;10.57;;;3.33;;
17854;SDS011;9053;53.358;6.382;2023-02-18T09:23:28;9.80;;;2.40;;
17854;SDS011;9053;53.358;6.382;2023-02-18T09:26:02;12.00;;;3.30;;
17854;SDS011;9053;53.358;6.382;2023-02-18T09:28:33;13.27;;;2.90;;
17854;SDS011;9053;53.358;6.382;2023-02-18T09:31:04;12.40;;;3.43;;
17854;SDS011;9053;53.358;6.382;2023-02-18T09:33:35;12.73;;;3.27;;
17854;SDS011;9053;53.358;6.382;2023-02-18T09:36:06;10.70;;;2.87;;
17854;SDS011;9053;53.358;6.382;2023-02-18T09:38:36;12.90;;;2.97;;
17854;SDS011;9053;53.358;6.382;2023-02-18T09:41:09;10.10;;;2.93;;
17854;SDS011;9053;53.358;6.382;2023-02-18T09:43:46;10.63;;;2.93;;
17854;SDS011;9053;53.358;6.382;2023-02-18T09:46:19;13.57;;;3.63;;
17854;SDS011;9053;53.358;6.382;2023-02-18T09:48:52;12.63;;;3.13;;
17854;SDS011;9053;53.358;6.382;2023-02-18T09:51:22;14.50;;;2.93;;
17854;SDS011;9053;53.358;6.382;2023-02-18T09:53:52;17.90;;;3.47;;
17854;SDS011;9053;53.358;6.382;2023-02-18T09:56:25;8.17;;;2.67;;
17854;SDS011;9053;53.358;6.382;2023-02-18T09:58:58;13.37;;;2.60;;
17854;SDS011;9053;53.358;6.382;2023-02-18T10:01:32;9.53;;;2.83;;
17854;SDS011;9053;53.358;6.382;2023-02-18T10:04:06;8.87;;;3.10;;
17854;SDS011;9053;53.358;6.382;2023-02-18T10:06:43;13.77;;;3.17;;
17854;SDS011;9053;53.358;6.382;2023-02-18T10:09:18;12.70;;;2.80;;
17854;SDS011;9053;53.358;6.382;2023-02-18T10:11:54;11.20;;;2.97;;
17854;SDS011;9053;53.358;6.382;2023-02-18T10:14:25;9.13;;;3.03;;
17854;SDS011;9053;53.358;6.382;2023-02-18T10:16:57;12.80;;;3.17;;
17854;SDS011;9053;53.358;6.382;2023-02-18T10:19:28;11.90;;;2.97;;
17854;SDS011;9053;53.358;6.382;2023-02-18T10:22:03;11.20;;;3.37;;
17854;SDS011;9053;53.358;6.382;2023-02-18T10:24:36;11.97;;;3.07;;
17854;SDS011;9053;53.358;6.382;2023-02-18T10:27:14;12.23;;;3.43;;
17854;SDS011;9053;53.358;6.382;2023-02-18T10:29:49;10.97;;;2.47;;
17854;SDS011;9053;53.358;6.382;2023-02-18T10:32:20;17.73;;;3.60;;
17854;SDS011;9053;53.358;6.382;2023-02-18T10:34:53;15.40;;;3.80;;
17854;SDS011;9053;53.358;6.382;2023-02-18T10:37:33;13.10;;;3.20;;
17854;SDS011;9053;53.358;6.382;2023-02-18T10:40:16;17.23;;;3.57;;
17854;SDS011;9053;53.358;6.382;2023-02-18T10:42:56;14.53;;;3.67;;
17854;SDS011;9053;53.358;6.382;2023-02-18T10:45:37;17.50;;;4.03;;
17854;SDS011;9053;53.358;6.382;2023-02-18T10:48:19;14.57;;;3.37;;
17854;SDS011;9053;53.358;6.382;2023-02-18T10:51:02;11.67;;;3.00;;
17854;SDS011;9053;53.358;6.382;2023-02-18T10:53:41;13.10;;;3.70;;
17854;SDS011;9053;53.358;6.382;2023-02-18T10:56:30;18.30;;;3.67;;
17854;SDS011;9053;53.358;6.382;2023-02-18T10:59:13;14.20;;;3.63;;
17854;SDS011;9053;53.358;6.382;2023-02-18T11:01:53;15.97;;;3.57;;
17854;SDS011;9053;53.358;6.382;2023-02-18T11:04:25;12.40;;;3.67;;
17854;SDS011;9053;53.358;6.382;2023-02-18T11:07:01;14.53;;;3.30;;
17854;SDS011;9053;53.358;6.382;2023-02-18T11:09:36;15.37;;;3.70;;
17854;SDS011;9053;53.358;6.382;2023-02-18T11:12:13;15.80;;;4.10;;
17854;SDS011;9053;53.358;6.382;2023-02-18T11:14:49;15.20;;;4.07;;
17854;SDS011;9053;53.358;6.382;2023-02-18T11:17:34;12.97;;;3.60;;
17854;SDS011;9053;53.358;6.382;2023-02-18T11:20:19;12.60;;;3.90;;
17854;SDS011;9053;53.358;6.382;2023-02-18T11:22:54;17.90;;;4.40;;
17854;SDS011;9053;53.358;6.382;2023-02-18T11:25:27;14.37;;;3.50;;
17854;SDS011;9053;53.358;6.382;2023-02-18T11:28:01;16.17;;;4.17;;
17854;SDS011;9053;53.358;6.382;2023-02-18T11:30:36;16.80;;;3.67;;
17854;SDS011;9053;53.358;6.382;2023-02-18T11:33:09;13.37;;;3.43;;
17854;SDS011;9053;53.358;6.382;2023-02-18T11:35:47;19.47;;;3.67;;
17854;SDS011;9053;53.358;6.382;2023-02-18T11:38:20;15.07;;;3.90;;
17854;SDS011;9053;53.358;6.382;2023-02-18T11:40:54;14.83;;;3.60;;
17854;SDS011;9053;53.358;6.382;2023-02-18T11:43:26;15.50;;;3.47;;
17854;SDS011;9053;53.358;6.382;2023-02-18T11:46:11;14.73;;;3.43;;
17854;SDS011;9053;53.358;6.382;2023-02-18T11:48:43;14.90;;;4.00;;
17854;SDS011;9053;53.358;6.382;2023-02-18T11:51:15;18.03;;;4.67;;
17854;SDS011;9053;53.358;6.382;2023-02-18T11:53:53;14.30;;;3.50;;
17854;SDS011;9053;53.358;6.382;2023-02-18T11:56:26;15.30;;;3.60;;
17854;SDS011;9053;53.358;6.382;2023-02-18T11:58:58;16.87;;;3.63;;
17854;SDS011;9053;53.358;6.382;2023-02-18T12:01:40;18.40;;;3.27;;
17854;SDS011;9053;53.358;6.382;2023-02-18T12:04:14;10.97;;;3.67;;
17854;SDS011;9053;53.358;6.382;2023-02-18T12:06:48;13.40;;;3.53;;
17854;SDS011;9053;53.358;6.382;2023-02-18T12:09:26;18.17;;;4.17;;
17854;SDS011;9053;53.358;6.382;2023-02-18T12:12:00;15.80;;;4.00;;
17854;SDS011;9053;53.358;6.382;2023-02-18T12:14:34;15.27;;;3.43;;
17854;SDS011;9053;53.358;6.382;2023-02-18T12:23:16;13.33;;;4.00;;
17854;SDS011;9053;53.358;6.382;2023-02-18T12:25:54;18.10;;;3.87;;
17854;SDS011;9053;53.358;6.382;2023-02-18T12:28:40;21.53;;;4.33;;
17854;SDS011;9053;53.358;6.382;2023-02-18T12:31:24;17.60;;;3.87;;
17854;SDS011;9053;53.358;6.382;2023-02-18T12:34:21;18.37;;;4.17;;
17854;SDS011;9053;53.358;6.382;2023-02-18T12:37:00;19.43;;;4.43;;
17854;SDS011;9053;53.358;6.382;2023-02-18T12:39:45;19.73;;;4.23;;
17854;SDS011;9053;53.358;6.382;2023-02-18T12:42:31;17.87;;;4.47;;
17854;SDS011;9053;53.358;6.382;2023-02-18T12:48:12;14.53;;;4.10;;
17854;SDS011;9053;53.358;6.382;2023-02-18T12:51:06;13.93;;;3.47;;
17854;SDS011;9053;53.358;6.382;2023-02-18T12:53:54;18.13;;;4.32;;
17854;SDS011;9053;53.358;6.382;2023-02-18T12:56:40;13.53;;;3.73;;
17854;SDS011;9053;53.358;6.382;2023-02-18T12:59:31;15.23;;;3.70;;
17854;SDS011;9053;53.358;6.382;2023-02-18T13:02:34;18.40;;;4.10;;
17854;SDS011;9053;53.358;6.382;2023-02-18T13:05:17;16.10;;;3.60;;
17854;SDS011;9053;53.358;6.382;2023-02-18T13:08:00;14.67;;;4.00;;
17854;SDS011;9053;53.358;6.382;2023-02-18T13:10:54;12.63;;;3.10;;
17854;SDS011;9053;53.358;6.382;2023-02-18T13:13:32;19.10;;;3.67;;
17854;SDS011;9053;53.358;6.382;2023-02-18T13:16:08;14.10;;;3.53;;
17854;SDS011;9053;53.358;6.382;2023-02-18T13:18:41;15.73;;;3.60;;
17854;SDS011;9053;53.358;6.382;2023-02-18T13:21:15;16.17;;;3.97;;
17854;SDS011;9053;53.358;6.382;2023-02-18T13:23:49;17.23;;;3.13;;
17854;SDS011;9053;53.358;6.382;2023-02-18T13:26:21;13.87;;;3.87;;
17854;SDS011;9053;53.358;6.382;2023-02-18T13:28:57;16.27;;;3.35;;
17854;SDS011;9053;53.358;6.382;2023-02-18T13:31:41;19.10;;;3.90;;
17854;SDS011;9053;53.358;6.382;2023-02-18T13:34:20;17.70;;;4.07;;
17854;SDS011;9053;53.358;6.382;2023-02-18T13:37:00;17.67;;;4.17;;
17854;SDS011;9053;53.358;6.382;2023-02-18T13:39:45;13.13;;;3.83;;
17854;SDS011;9053;53.358;6.382;2023-02-18T13:45:22;15.23;;;3.27;;
17854;SDS011;9053;53.358;6.382;2023-02-18T13:47:54;14.10;;;3.43;;
17854;SDS011;9053;53.358;6.382;2023-02-18T13:50:27;12.03;;;2.80;;
17854;SDS011;9053;53.358;6.382;2023-02-18T13:56:06;18.47;;;3.67;;
17854;SDS011;9053;53.358;6.382;2023-02-18T13:58:40;14.37;;;3.40;;
17854;SDS011;9053;53.358;6.382;2023-02-18T14:10:25;11.93;;;3.30;;
17854;SDS011;9053;53.358;6.382;2023-02-18T14:13:23;13.77;;;3.27;;
17854;SDS011;9053;53.358;6.382;2023-02-18T14:16:06;12.30;;;3.77;;
17854;SDS011;9053;53.358;6.382;2023-02-18T14:21:34;11.50;;;3.07;;
17854;SDS011;9053;53.358;6.382;2023-02-18T14:24:10;11.87;;;2.57;;
17854;SDS011;9053;53.358;6.382;2023-02-18T14:26:44;17.37;;;3.87;;
17854;SDS011;9053;53.358;6.382;2023-02-18T14:29:25;15.87;;;3.97;;
17854;SDS011;9053;53.358;6.382;2023-02-18T14:31:59;15.70;;;3.60;;
17854;SDS011;9053;53.358;6.382;2023-02-18T14:37:45;14.27;;;3.10;;
17854;SDS011;9053;53.358;6.382;2023-02-18T14:40:36;18.23;;;4.00;;
17854;SDS011;9053;53.358;6.382;2023-02-18T14:43:24;15.83;;;3.80;;
17854;SDS011;9053;53.358;6.382;2023-02-18T14:46:19;13.53;;;3.20;;
17854;SDS011;9053;53.358;6.382;2023-02-18T14:49:04;14.93;;;3.07;;
17854;SDS011;9053;53.358;6.382;2023-02-18T14:51:45;18.57;;;3.60;;
17854;SDS011;9053;53.358;6.382;2023-02-18T14:54:18;14.33;;;3.73;;
17854;SDS011;9053;53.358;6.382;2023-02-18T14:56:53;22.37;;;4.47;;
17854;SDS011;9053;53.358;6.382;2023-02-18T14:59:27;16.27;;;4.60;;
17854;SDS011;9053;53.358;6.382;2023-02-18T15:02:02;23.70;;;4.47;;
17854;SDS011;9053;53.358;6.382;2023-02-18T15:04:32;16.50;;;3.90;;
17854;SDS011;9053;53.358;6.382;2023-02-18T15:07:02;25.07;;;5.37;;
17854;SDS011;9053;53.358;6.382;2023-02-18T15:09:33;16.50;;;4.30;;
17854;SDS011;9053;53.358;6.382;2023-02-18T15:12:04;19.07;;;3.73;;
17854;SDS011;9053;53.358;6.382;2023-02-18T15:14:36;16.20;;;4.17;;
17854;SDS011;9053;53.358;6.382;2023-02-18T15:17:13;17.20;;;4.30;;
17854;SDS011;9053;53.358;6.382;2023-02-18T15:19:46;20.83;;;4.07;;
17854;SDS011;9053;53.358;6.382;2023-02-18T15:22:20;17.53;;;4.40;;
17854;SDS011;9053;53.358;6.382;2023-02-18T15:24:51;17.40;;;3.83;;
17854;SDS011;9053;53.358;6.382;2023-02-18T15:27:23;16.90;;;3.60;;
17854;SDS011;9053;53.358;6.382;2023-02-18T15:29:56;15.37;;;3.53;;
17854;SDS011;9053;53.358;6.382;2023-02-18T15:32:31;18.10;;;3.60;;
17854;SDS011;9053;53.358;6.382;2023-02-18T15:35:01;20.37;;;3.80;;
17854;SDS011;9053;53.358;6.382;2023-02-18T15:37:43;20.40;;;4.07;;
17854;SDS011;9053;53.358;6.382;2023-02-18T15:40:14;13.17;;;3.77;;
17854;SDS011;9053;53.358;6.382;2023-02-18T15:42:45;11.63;;;3.53;;
17854;SDS011;9053;53.358;6.382;2023-02-18T15:45:19;14.53;;;3.73;;
17854;SDS011;9053;53.358;6.382;2023-02-18T15:47:53;17.20;;;4.20;;
17854;SDS011;9053;53.358;6.382;2023-02-18T15:50:26;13.10;;;3.20;;
17854;SDS011;9053;53.358;6.382;2023-02-18T15:52:59;17.03;;;4.30;;
17854;SDS011;9053;53.358;6.382;2023-02-18T15:55:35;13.83;;;3.10;;
17854;SDS011;9053;53.358;6.382;2023-02-18T15:58:11;14.37;;;3.57;;
17854;SDS011;9053;53.358;6.382;2023-02-18T16:00:47;14.77;;;4.33;;
17854;SDS011;9053;53.358;6.382;2023-02-18T16:03:22;17.23;;;4.17;;
17854;SDS011;9053;53.358;6.382;2023-02-18T16:06:07;20.57;;;4.10;;
17854;SDS011;9053;53.358;6.382;2023-02-18T16:08:39;20.10;;;5.17;;
17854;SDS011;9053;53.358;6.382;2023-02-18T16:11:09;19.13;;;4.50;;
17854;SDS011;9053;53.358;6.382;2023-02-18T16:13:43;20.03;;;4.27;;